Time;durP1;ratioP1;P1;durP2;ratioP2;P2;SDS_P1;SDS_P2;PMS_P1;PMS_P2;Temp;Humidity;BMP_temperature;BMP_pressure;BME280_temperature;BME280_humidity;BME280_pressure;Samples;Min_cycle;Max_cycle;Signal;HPM_P1;HPM_P2
2022/06/08 00:00:59;;;;;;;63.40;44.83;;;;;;;17.30;100.00;98668.47;2083061;28;20560;-75
2022/06/08 00:01:59;;;;;;;59.90;42.83;;;;;;;17.30;100.00;98660.38;2091006;28;20532;-74
2022/06/08 00:03:05;;;;;;;57.93;43.87;;;;;;;17.32;100.00;98666.22;2075023;28;20475;-75
2022/06/08 00:04:09;;;;;;;59.20;42.73;;;;;;;17.33;100.00;98667.78;2074451;28;20698;-74
2022/06/08 00:05:12;;;;;;;58.00;43.97;;;;;;;17.39;100.00;98671.00;2074607;28;20423;-75
2022/06/08 00:06:17;;;;;;;63.07;44.20;;;;;;;17.31;100.00;98664.66;2082111;28;20459;-75
2022/06/08 00:07:19;;;;;;;57.57;42.87;;;;;;;17.38;100.00;98669.44;2074279;28;20514;-75
2022/06/08 00:08:20;;;;;;;56.50;43.43;;;;;;;17.45;100.00;98670.34;2074455;28;20470;-75
2022/06/08 00:09:22;;;;;;;60.30;44.30;;;;;;;17.51;100.00;98666.25;2075327;28;20427;-75
2022/06/08 00:10:23;;;;;;;57.03;44.73;;;;;;;17.53;100.00;98671.28;2075105;28;20216;-76
2022/06/08 00:11:25;;;;;;;63.87;45.30;;;;;;;17.47;100.00;98667.31;2075226;28;20526;-76
2022/06/08 00:12:28;;;;;;;62.13;44.17;;;;;;;17.41;100.00;98666.81;2081747;28;20449;-76
2022/06/08 00:13:31;;;;;;;57.73;43.83;;;;;;;17.29;100.00;98672.31;2074285;28;20446;-76
2022/06/08 00:14:33;;;;;;;57.70;44.07;;;;;;;17.28;100.00;98673.41;2082799;28;20855;-76
2022/06/08 00:15:35;;;;;;;58.80;44.07;;;;;;;17.32;100.00;98671.59;2090703;28;20454;-75
2022/06/08 00:16:36;;;;;;;54.47;42.60;;;;;;;17.38;100.00;98675.59;2075060;28;20446;-76
2022/06/08 00:17:39;;;;;;;60.00;45.03;;;;;;;17.44;100.00;98673.41;2074885;28;20470;-76
2022/06/08 00:18:42;;;;;;;63.67;44.93;;;;;;;17.47;100.00;98672.72;2074330;28;20189;-76
2022/06/08 00:19:44;;;;;;;59.90;44.80;;;;;;;17.50;100.00;98670.09;2074562;28;20911;-76
2022/06/08 00:20:48;;;;;;;58.13;43.13;;;;;;;17.41;100.00;98674.91;2075269;28;20470;-76
2022/06/08 00:21:49;;;;;;;60.23;44.37;;;;;;;17.43;100.00;98675.31;2074041;28;20456;-76
2022/06/08 00:22:53;;;;;;;59.27;43.23;;;;;;;17.43;100.00;98677.22;2074375;28;20467;-76
2022/06/08 00:23:58;;;;;;;62.80;44.13;;;;;;;17.41;100.00;98672.19;2074884;28;20188;-76
2022/06/08 00:25:02;;;;;;;59.40;43.87;;;;;;;17.44;100.00;98676.88;2074254;28;20455;-76
2022/06/08 00:26:04;;;;;;;54.57;41.67;;;;;;;17.49;100.00;98675.84;2074479;28;20773;-76
2022/06/08 00:27:06;;;;;;;63.53;42.33;;;;;;;17.49;100.00;98675.84;2074200;28;20455;-76
2022/06/08 00:28:09;;;;;;;56.27;41.87;;;;;;;17.46;100.00;98676.53;2074567;28;20443;-76
2022/06/08 00:29:10;;;;;;;51.03;42.20;;;;;;;17.40;100.00;98667.94;2074153;28;20528;-76
2022/06/08 00:30:14;;;;;;;54.33;43.53;;;;;;;17.38;100.00;98672.91;2066153;28;20483;-76
2022/06/08 00:31:17;;;;;;;54.03;43.20;;;;;;;17.41;100.00;98666.81;2066582;28;20451;-76
2022/06/08 00:32:23;;;;;;;57.63;43.00;;;;;;;17.40;100.00;98667.94;2066851;28;20440;-76
2022/06/08 00:33:25;;;;;;;49.70;40.50;;;;;;;17.40;100.00;98667.16;2082725;28;20462;-76
2022/06/08 00:34:28;;;;;;;48.23;40.77;;;;;;;17.41;100.00;98669.50;2082266;28;20557;-76
2022/06/08 00:35:30;;;;;;;54.37;41.70;;;;;;;17.41;100.00;98661.41;2066523;28;20445;-76
2022/06/08 00:36:32;;;;;;;53.90;42.13;;;;;;;17.40;100.00;98670.63;2074064;28;20497;-76
2022/06/08 00:37:32;;;;;;;53.53;42.80;;;;;;;17.39;100.00;98663.69;2074112;28;20458;-76
2022/06/08 00:38:36;;;;;;;57.00;43.13;;;;;;;17.40;100.00;98665.25;2082673;28;20521;-76
2022/06/08 00:39:37;;;;;;;52.07;41.23;;;;;;;17.43;100.00;98667.22;2090132;28;20429;-76
2022/06/08 00:40:49;;;;;;;57.30;43.03;;;;;;;17.47;100.00;98668.09;2074094;28;20482;-77
2022/06/08 00:41:52;;;;;;;55.20;42.70;;;;;;;17.47;100.00;98665.41;2074576;28;20177;-76
2022/06/08 00:42:53;;;;;;;53.03;41.83;;;;;;;17.52;100.00;98669.72;2074120;28;20486;-76
2022/06/08 00:43:55;;;;;;;57.37;42.83;;;;;;;17.56;100.00;98661.75;2066112;28;20459;-76
2022/06/08 00:44:59;;;;;;;58.10;44.07;;;;;;;17.54;100.00;98659.38;2066143;28;20448;-76
2022/06/08 00:46:05;;;;;;;54.20;41.77;;;;;;;17.60;100.00;98654.50;2074444;28;20459;-76
2022/06/08 00:47:09;;;;;;;47.63;40.93;;;;;;;17.56;100.00;98657.13;2081898;28;20407;-76
2022/06/08 00:48:10;;;;;;;50.47;41.13;;;;;;;17.52;100.00;98654.31;2074013;28;20462;-76
2022/06/08 00:49:18;;;;;;;51.53;41.73;;;;;;;17.52;100.00;98648.94;2066113;28;20535;-77
2022/06/08 00:50:20;;;;;;;52.47;41.80;;;;;;;17.58;100.00;98651.38;2074255;28;20188;-76
2022/06/08 00:51:22;;;;;;;51.00;40.90;;;;;;;17.57;100.00;98649.81;2073665;28;20586;-76
2022/06/08 00:52:23;;;;;;;54.10;41.73;;;;;;;17.57;100.00;98645.19;2074147;28;20427;-76
2022/06/08 00:53:32;;;;;;;53.67;41.37;;;;;;;17.62;100.00;98653.00;2074062;28;20440;-76
2022/06/08 00:54:37;;;;;;;50.40;41.80;;;;;;;17.63;100.00;98642.97;2074458;28;20435;-77
2022/06/08 00:55:40;;;;;;;49.37;41.77;;;;;;;17.63;100.00;98651.06;2074635;28;20926;-76
2022/06/08 00:56:45;;;;;;;54.80;42.57;;;;;;;17.61;100.00;98645.25;2074702;28;20489;-76
2022/06/08 00:57:51;;;;;;;47.67;40.73;;;;;;;17.65;100.00;98646.13;2074936;28;20997;-76
2022/06/08 00:58:52;;;;;;;54.03;40.80;;;;;;;17.64;100.00;98649.97;2074684;28;20416;-76
2022/06/08 00:59:58;;;;;;;50.30;41.57;;;;;;;17.63;100.00;98659.19;2074322;28;20930;-76
2022/06/08 01:01:01;;;;;;;48.73;41.07;;;;;;;17.58;100.00;98651.38;2066549;28;20281;-76
2022/06/08 01:02:06;;;;;;;52.13;40.93;;;;;;;17.56;100.00;98654.44;2074165;28;20466;-76
2022/06/08 01:03:10;;;;;;;48.03;40.00;;;;;;;17.58;100.00;98652.16;2073996;28;20474;-76
2022/06/08 01:04:18;;;;;;;49.70;41.97;;;;;;;17.58;100.00;98651.38;2067172;28;21077;-76
2022/06/08 01:05:28;;;;;;;48.23;39.90;;;;;;;17.52;100.00;98653.56;2066642;28;20432;-76
2022/06/08 01:06:33;;;;;;;49.07;40.07;;;;;;;17.49;100.00;98665.06;2066526;28;20519;-76
2022/06/08 01:07:36;;;;;;;49.33;39.47;;;;;;;17.49;100.00;98651.56;2066289;28;20463;-76
2022/06/08 01:08:40;;;;;;;44.93;40.13;;;;;;;17.46;100.00;98658.44;2066032;28;20448;-76
2022/06/08 01:09:45;;;;;;;47.90;40.40;;;;;;;17.49;100.00;98654.25;2083445;28;20446;-75
2022/06/08 01:10:47;;;;;;;49.90;40.53;;;;;;;17.50;100.00;98653.91;2090265;28;20825;-76
2022/06/08 01:11:51;;;;;;;45.90;40.00;;;;;;;17.55;100.00;98649.34;2074116;28;20443;-76
2022/06/08 01:12:53;;;;;;;49.27;38.60;;;;;;;17.64;100.00;98655.38;2073967;28;20548;-76
2022/06/08 01:13:56;;;;;;;49.67;41.10;;;;;;;17.72;100.00;98654.38;2081959;28;20438;-76
2022/06/08 01:14:57;;;;;;;48.47;40.63;;;;;;;17.72;100.00;98652.50;2090714;28;20441;-76
2022/06/08 01:16:00;;;;;;;50.37;40.60;;;;;;;17.73;100.00;98659.47;2090433;28;20434;-76
2022/06/08 01:17:07;;;;;;;48.40;40.00;;;;;;;17.71;100.00;98650.13;2074083;28;20192;-76
2022/06/08 01:18:09;;;;;;;48.30;40.10;;;;;;;17.74;100.00;98644.03;2066466;28;20479;-78
2022/06/08 01:19:11;;;;;;;53.90;40.93;;;;;;;17.69;100.00;98638.88;2073962;28;20426;-78
2022/06/08 01:20:13;;;;;;;52.27;40.43;;;;;;;17.70;100.00;98643.16;2074106;28;20447;-76
2022/06/08 01:21:51;;;;;;;52.93;42.13;;;;;;;17.70;100.00;98648.56;2073365;28;20439;-76
2022/06/08 01:23:09;;;;;;;55.23;39.60;;;;;;;17.72;100.00;98647.09;2072678;28;20510;-75
2022/06/08 01:24:12;;;;;;;49.57;39.90;;;;;;;17.68;100.00;98643.50;2066050;28;20455;-76
2022/06/08 01:25:19;;;;;;;48.40;39.60;;;;;;;17.68;100.00;98645.41;2074936;28;20428;-76
2022/06/08 01:26:34;;;;;;;46.63;40.17;;;;;;;17.68;100.00;98640.81;2073671;28;20447;-76
2022/06/08 01:27:54;;;;;;;44.90;39.37;;;;;;;17.74;100.00;98649.44;2074399;28;20564;-76
2022/06/08 01:29:01;;;;;;;50.40;39.83;;;;;;;17.62;100.00;98631.41;2074374;28;20478;-75
2022/06/08 01:30:20;;;;;;;44.13;39.37;;;;;;;17.60;100.00;98636.38;2074483;28;20518;-76
2022/06/08 01:31:24;;;;;;;48.60;39.37;;;;;;;17.62;100.00;98634.13;2073244;28;20506;-76
2022/06/08 01:32:29;;;;;;;48.77;39.57;;;;;;;17.60;100.00;98632.91;2073832;28;20958;-76
2022/06/08 01:33:50;;;;;;;45.60;38.40;;;;;;;17.61;100.00;98634.47;2074828;28;20438;-76
2022/06/08 01:35:08;;;;;;;45.10;38.90;;;;;;;17.67;100.00;98639.25;2074569;28;20408;-76
2022/06/08 01:36:29;;;;;;;47.80;38.37;;;;;;;17.75;100.00;98629.41;2074371;28;20442;-76
2022/06/08 01:37:41;;;;;;;45.47;39.97;;;;;;;17.80;100.00;98626.41;2074407;28;20411;-75
2022/06/08 01:38:47;;;;;;;49.10;39.17;;;;;;;17.82;100.00;98623.41;2074851;28;20404;-75
2022/06/08 01:40:26;;;;;;;52.43;40.20;;;;;;;17.82;100.00;98626.88;2073709;28;20447;-75
2022/06/08 01:41:52;;;;;;;43.13;38.30;;;;;;;17.79;100.00;98627.56;2070661;28;20559;-76
2022/06/08 01:43:06;;;;;;;50.53;39.57;;;;;;;17.78;100.00;98623.31;2076899;28;20943;-76
2022/06/08 01:44:18;;;;;;;51.07;39.70;;;;;;;17.77;100.00;98622.53;2074005;28;20470;-78
2022/06/08 01:45:29;;;;;;;49.77;40.37;;;;;;;17.78;100.00;98624.09;2066897;28;20460;-76
2022/06/08 01:46:33;;;;;;;47.23;38.73;;;;;;;17.76;100.00;98617.47;2083500;28;20426;-76
2022/06/08 01:47:43;;;;;;;50.83;40.23;;;;;;;17.78;100.00;98617.91;2081218;28;20446;-76
2022/06/08 01:49:08;;;;;;;47.07;38.83;;;;;;;17.80;100.00;98615.63;2067203;28;20965;-76
2022/06/08 01:50:13;;;;;;;49.43;39.57;;;;;;;17.84;100.00;98624.59;2066244;28;21026;-76
2022/06/08 01:51:23;;;;;;;45.33;38.87;;;;;;;17.77;100.00;98616.34;2073719;28;20453;-75
2022/06/08 01:52:30;;;;;;;42.90;38.23;;;;;;;17.70;100.00;98622.38;2074451;28;20737;-75
2022/06/08 01:53:47;;;;;;;48.83;39.30;;;;;;;17.73;100.00;98620.91;2090063;28;20979;-76
2022/06/08 01:54:59;;;;;;;49.33;39.23;;;;;;;17.74;100.00;98627.84;2080297;28;20442;-75
2022/06/08 01:56:03;;;;;;;49.43;41.00;;;;;;;17.69;100.00;98620.00;2075014;28;20447;-75
2022/06/08 01:57:17;;;;;;;47.93;39.50;;;;;;;17.69;100.00;98625.41;2090480;28;20439;-76
2022/06/08 01:58:22;;;;;;;51.90;40.20;;;;;;;17.70;100.00;98622.38;2080296;28;20431;-75
2022/06/08 01:59:30;;;;;;;49.80;40.60;;;;;;;17.75;100.00;98621.31;2066306;28;20527;-76
2022/06/08 02:00:33;;;;;;;50.13;39.77;;;;;;;17.73;100.00;98623.59;2066464;28;20491;-75
2022/06/08 02:01:42;;;;;;;51.80;41.23;;;;;;;17.68;100.00;98621.91;2065954;28;20442;-76
2022/06/08 02:02:50;;;;;;;51.83;40.73;;;;;;;17.68;100.00;98621.91;2066622;28;20440;-75
2022/06/08 02:03:59;;;;;;;47.67;40.47;;;;;;;17.65;100.00;98619.94;2066339;28;20479;-76
2022/06/08 02:05:07;;;;;;;57.10;39.80;;;;;;;17.62;100.00;98617.91;2066619;28;21057;-75
2022/06/08 02:06:16;;;;;;;51.30;39.87;;;;;;;17.64;100.00;98617.59;2065867;28;20451;-75
2022/06/08 02:07:26;;;;;;;48.53;40.50;;;;;;;17.60;100.00;98614.81;2067477;28;20473;-75
2022/06/08 02:08:34;;;;;;;48.77;40.00;;;;;;;17.60;100.00;98614.81;2066605;28;20483;-75
2022/06/08 02:09:42;;;;;;;53.17;39.77;;;;;;;17.63;100.00;98618.72;2066933;28;20947;-75
2022/06/08 02:10:52;;;;;;;49.93;40.63;;;;;;;17.58;100.00;98621.69;2074568;28;20485;-76
2022/06/08 02:12:03;;;;;;;50.23;40.47;;;;;;;17.42;100.00;98611.72;2073642;28;20451;-77
2022/06/08 02:13:29;;;;;;;50.30;39.80;;;;;;;17.59;100.00;98615.94;2083551;28;20962;-76
2022/06/08 02:14:35;;;;;;;50.60;39.23;;;;;;;17.58;100.00;98610.91;2079070;28;20430;-77
2022/06/08 02:15:40;;;;;;;52.13;40.57;;;;;;;17.59;100.00;98612.47;2066171;28;20436;-76
2022/06/08 02:16:53;;;;;;;48.17;40.00;;;;;;;17.62;100.00;98609.84;2065786;28;20895;-77
2022/06/08 02:17:59;;;;;;;48.40;39.10;;;;;;;17.63;100.00;98611.38;2074089;28;20458;-76
2022/06/08 02:19:14;;;;;;;49.50;39.87;;;;;;;17.65;100.00;98608.38;2089924;28;20798;-77
2022/06/08 02:20:20;;;;;;;48.37;39.60;;;;;;;17.66;100.00;98608.00;2081245;28;20442;-77
2022/06/08 02:21:27;;;;;;;48.27;38.83;;;;;;;17.62;100.00;98606.34;2065554;28;20498;-77
2022/06/08 02:22:35;;;;;;;46.23;39.73;;;;;;;17.70;100.00;98611.56;2066267;28;20451;-77
2022/06/08 02:23:43;;;;;;;48.80;38.57;;;;;;;17.66;100.00;98608.00;2066513;28;20532;-77
2022/06/08 02:24:51;;;;;;;49.63;38.87;;;;;;;17.74;100.00;98606.28;2066595;28;20432;-77
2022/06/08 02:25:56;;;;;;;51.63;39.97;;;;;;;17.75;100.00;98599.72;2066120;28;20816;-77
2022/06/08 02:27:00;;;;;;;45.23;38.13;;;;;;;17.76;100.00;98606.69;2066007;28;20450;-76
2022/06/08 02:28:04;;;;;;;49.83;39.10;;;;;;;17.75;100.00;98603.22;2073695;28;20538;-76
2022/06/08 02:29:10;;;;;;;48.77;37.87;;;;;;;17.75;100.00;98607.81;2081889;28;20477;-76
2022/06/08 02:30:14;;;;;;;48.17;37.43;;;;;;;17.74;100.00;98601.66;2080881;28;20463;-76
2022/06/08 02:31:19;;;;;;;44.80;37.73;;;;;;;17.77;100.00;98610.94;2065904;28;20455;-77
2022/06/08 02:35:16;;;;;;;40.50;34.20;;;;;;;17.86;100.00;98603.41;2073332;28;20431;-76
2022/06/08 02:36:21;;;;;;;37.57;33.57;;;;;;;17.86;100.00;98602.66;2065549;28;20624;-77
2022/06/08 02:37:24;;;;;;;37.60;33.43;;;;;;;17.89;100.00;98604.63;2065695;28;20448;-76
2022/06/08 02:38:32;;;;;;;38.77;33.97;;;;;;;17.95;100.00;98604.00;2065772;28;20943;-77
2022/06/08 02:39:37;;;;;;;37.20;33.20;;;;;;;17.94;100.00;98590.84;2066007;28;20441;-76
2022/06/08 02:40:46;;;;;;;38.30;33.30;;;;;;;17.96;100.00;98589.34;2065982;28;20455;-76
2022/06/08 02:41:50;;;;;;;36.70;32.37;;;;;;;17.94;100.00;98588.94;2066196;28;20440;-76
2022/06/08 02:42:55;;;;;;;36.37;32.57;;;;;;;17.98;100.00;98591.69;2073624;28;20439;-77
2022/06/08 02:43:58;;;;;;;36.63;32.73;;;;;;;17.97;100.00;98582.81;2073898;28;20839;-77
2022/06/08 02:45:08;;;;;;;37.60;33.70;;;;;;;17.98;100.00;98595.19;2073469;28;20876;-77
2022/06/08 02:46:15;;;;;;;37.40;31.30;;;;;;;17.99;100.00;98588.66;2082533;28;20941;-76
2022/06/08 02:47:29;;;;;;;34.80;31.13;;;;;;;18.01;100.00;98599.09;2088911;28;20878;-76
2022/06/08 02:48:35;;;;;;;33.77;30.47;;;;;;;18.01;100.00;98580.19;2073549;28;20450;-76
2022/06/08 02:49:36;;;;;;;32.27;29.23;;;;;;;18.02;100.00;98579.84;2065575;28;20452;-77
2022/06/08 02:50:49;;;;;;;33.07;29.73;;;;;;;18.14;100.00;98583.50;2066143;28;20421;-76
2022/06/08 02:51:51;;;;;;;32.17;28.97;;;;;;;18.16;100.00;98589.34;2066129;28;20456;-76
2022/06/08 02:53:08;;;;;;;33.23;29.93;;;;;;;18.11;100.00;98581.53;2066059;28;20498;-77
2022/06/08 02:54:14;;;;;;;32.83;29.20;;;;;;;18.04;100.00;98582.19;2067079;28;20535;-77
2022/06/08 02:55:20;;;;;;;33.47;29.97;;;;;;;18.02;100.00;98579.84;2073712;28;20411;-76
2022/06/08 02:56:34;;;;;;;31.73;28.70;;;;;;;17.99;100.00;98571.69;2073473;28;21047;-77
2022/06/08 02:57:43;;;;;;;35.07;31.40;;;;;;;18.03;100.00;98575.22;2067897;28;20420;-76
2022/06/08 02:58:53;;;;;;;33.97;30.60;;;;;;;18.00;100.00;98576.72;2066086;28;20448;-77
2022/06/08 03:00:00;;;;;;;33.97;30.23;;;;;;;18.13;100.00;98576.56;2082495;28;20446;-76
2022/06/08 03:01:05;;;;;;;33.43;30.10;;;;;;;18.15;100.00;98579.66;2088177;28;20444;-76
2022/06/08 03:02:14;;;;;;;34.77;31.27;;;;;;;18.14;100.00;98580.81;2073379;28;20825;-76
2022/06/08 03:03:19;;;;;;;35.10;31.40;;;;;;;18.14;100.00;98581.59;2065678;28;20459;-77
2022/06/08 03:04:26;;;;;;;34.17;30.87;;;;;;;18.12;100.00;98575.00;2065602;28;20453;-77
2022/06/08 03:05:35;;;;;;;34.57;30.87;;;;;;;18.16;100.00;98582.03;2082535;28;20937;-77
2022/06/08 03:06:40;;;;;;;35.47;31.73;;;;;;;18.15;100.00;98576.97;2080086;28;20643;-76
2022/06/08 03:07:46;;;;;;;34.43;30.43;;;;;;;18.22;100.00;98579.81;2066065;28;20451;-76
2022/06/08 03:08:53;;;;;;;34.87;31.37;;;;;;;18.16;100.00;98573.94;2073365;28;20975;-77
2022/06/08 03:09:55;;;;;;;34.37;30.83;;;;;;;18.20;100.00;98568.59;2089694;28;20511;-76
2022/06/08 03:10:59;;;;;;;33.00;29.73;;;;;;;18.25;100.00;98566.38;2081578;28;20488;-76
2022/06/08 03:12:05;;;;;;;34.47;30.97;;;;;;;18.25;100.00;98566.38;2065522;28;20440;-75
2022/06/08 03:13:11;;;;;;;34.37;30.87;;;;;;;18.33;100.00;98570.78;2065908;28;20455;-76
2022/06/08 03:14:14;;;;;;;32.63;29.50;;;;;;;18.33;100.00;98568.06;2065832;28;20486;-75
2022/06/08 03:15:20;;;;;;;33.30;29.57;;;;;;;18.39;100.00;98560.44;2073639;28;20530;-76
2022/06/08 03:16:26;;;;;;;34.17;30.73;;;;;;;18.30;100.00;98565.28;2089729;28;20441;-75
2022/06/08 03:17:33;;;;;;;34.07;30.53;;;;;;;18.31;100.00;98561.44;2080678;28;20810;-75
2022/06/08 03:18:34;;;;;;;33.67;30.17;;;;;;;18.32;100.00;98563.00;2065934;28;20459;-75
2022/06/08 03:19:37;;;;;;;33.47;29.97;;;;;;;18.31;100.00;98564.16;2065497;28;21050;-75
2022/06/08 03:20:41;;;;;;;33.30;30.00;;;;;;;18.30;100.00;98559.88;2073578;28;20498;-76
2022/06/08 03:21:43;;;;;;;33.13;29.73;;;;;;;18.31;100.00;98564.94;2072716;28;20460;-76
2022/06/08 03:22:46;;;;;;;33.67;30.47;;;;;;;18.33;100.00;98565.38;2065487;28;21010;-76
2022/06/08 03:23:48;;;;;;;34.83;31.03;;;;;;;18.31;100.00;98561.44;2065285;28;20476;-76
2022/06/08 03:24:50;;;;;;;33.80;30.47;;;;;;;18.33;100.00;98573.47;2065315;28;20959;-76
2022/06/08 03:25:53;;;;;;;33.40;30.10;;;;;;;18.44;100.00;98567.47;2065428;28;20447;-75
2022/06/08 03:27:01;;;;;;;32.73;29.53;;;;;;;18.51;100.00;98576.47;2065101;28;20463;-76
2022/06/08 03:28:05;;;;;;;32.50;29.37;;;;;;;18.41;100.00;98571.66;2066238;28;20537;-75
2022/06/08 03:29:08;;;;;;;31.93;28.90;;;;;;;18.44;100.00;98573.66;2066255;28;20551;-75
2022/06/08 03:30:11;;;;;;;31.97;28.90;;;;;;;18.53;100.00;98573.41;2074904;28;20470;-75
2022/06/08 03:31:15;;;;;;;32.27;29.07;;;;;;;18.45;100.00;98575.22;2074693;28;20877;-75
2022/06/08 03:32:17;;;;;;;31.50;28.40;;;;;;;18.48;100.00;98577.19;2066599;28;20444;-76
2022/06/08 03:33:18;;;;;;;30.50;27.40;;;;;;;18.40;100.00;98578.19;2082988;28;20442;-75
2022/06/08 03:34:21;;;;;;;32.10;28.67;;;;;;;18.39;100.00;98575.88;2082933;28;21031;-76
2022/06/08 03:35:26;;;;;;;32.40;29.30;;;;;;;18.44;100.00;98570.16;2066840;28;20448;-75
2022/06/08 03:36:30;;;;;;;32.10;28.70;;;;;;;18.42;100.00;98577.84;2066609;28;20544;-75
2022/06/08 03:37:33;;;;;;;31.80;28.63;;;;;;;18.38;100.00;98580.47;2066630;28;20444;-75
2022/06/08 03:38:35;;;;;;;32.27;28.93;;;;;;;18.41;100.00;98578.97;2058868;28;20449;-76
2022/06/08 03:39:37;;;;;;;31.73;28.73;;;;;;;18.43;100.00;98574.78;2058881;28;20450;-75
2022/06/08 03:40:38;;;;;;;31.67;28.67;;;;;;;18.43;100.00;98572.09;2066534;28;20205;-75
2022/06/08 03:41:40;;;;;;;31.57;28.23;;;;;;;18.47;100.00;98578.31;2066463;28;20994;-75
2022/06/08 03:42:43;;;;;;;32.37;29.27;;;;;;;18.51;100.00;98576.47;2074625;28;20216;-75
2022/06/08 03:43:46;;;;;;;32.23;28.93;;;;;;;18.53;100.00;98579.59;2066384;28;20820;-75
2022/06/08 03:44:48;;;;;;;31.03;27.93;;;;;;;18.55;100.00;98577.31;2066634;28;20506;-76
2022/06/08 03:45:52;;;;;;;31.80;28.77;;;;;;;18.55;100.00;98577.31;2066653;28;20432;-76
2022/06/08 03:46:56;;;;;;;31.93;28.77;;;;;;;18.56;100.00;98576.16;2074496;28;20439;-76
2022/06/08 03:47:58;;;;;;;32.53;29.37;;;;;;;18.58;100.00;98584.69;2074477;28;20438;-76
2022/06/08 03:49:01;;;;;;;33.73;30.03;;;;;;;18.56;100.00;98581.56;2066421;28;20507;-76
2022/06/08 03:50:08;;;;;;;31.63;28.50;;;;;;;18.63;100.00;98579.00;2066759;28;20453;-76
2022/06/08 03:51:10;;;;;;;32.20;29.10;;;;;;;18.66;100.00;98579.44;2073953;28;20836;-76
2022/06/08 03:52:14;;;;;;;31.70;28.10;;;;;;;18.80;100.00;98579.69;2075237;28;20438;-80
2022/06/08 03:53:19;;;;;;;30.83;28.00;;;;;;;18.79;100.00;98583.53;2075139;28;20435;-76
2022/06/08 03:54:24;;;;;;;33.70;29.03;;;;;;;18.75;100.00;98577.25;2075152;28;20427;-76
2022/06/08 03:55:27;;;;;;;31.87;28.57;;;;;;;18.72;100.00;98580.69;2075230;28;20467;-75
2022/06/08 03:56:35;;;;;;;31.63;28.50;;;;;;;18.75;100.00;98588.84;2074772;28;20954;-75
2022/06/08 03:57:38;;;;;;;30.90;27.90;;;;;;;18.74;100.00;98581.13;2075138;28;20898;-76
2022/06/08 03:58:41;;;;;;;31.77;28.53;;;;;;;18.75;100.00;98588.06;2074719;28;20490;-74
2022/06/08 03:59:51;;;;;;;31.60;28.70;;;;;;;18.48;100.00;98584.50;2067359;28;20974;-73
2022/06/08 04:00:53;;;;;;;31.77;28.83;;;;;;;18.74;100.00;98575.72;2066668;28;20973;-74
2022/06/08 04:01:55;;;;;;;32.77;29.63;;;;;;;18.77;100.00;98580.41;2074410;28;20901;-76
2022/06/08 04:02:56;;;;;;;31.20;28.37;;;;;;;18.82;100.00;98577.38;2066257;28;20547;-76
2022/06/08 04:04:01;;;;;;;31.53;28.30;;;;;;;18.79;100.00;98578.13;2066776;28;20523;-78
2022/06/08 04:05:06;;;;;;;33.10;29.63;;;;;;;18.67;100.00;98581.00;2066681;28;20447;-73
2022/06/08 04:06:08;;;;;;;31.47;28.17;;;;;;;18.72;100.00;98586.09;2066442;28;20440;-73
2022/06/08 04:07:12;;;;;;;31.03;28.13;;;;;;;18.58;100.00;98578.50;2075131;28;20441;-75
2022/06/08 04:08:17;;;;;;;31.20;28.10;;;;;;;18.75;100.00;98585.38;2074570;28;20443;-74
2022/06/08 04:09:26;;;;;;;31.83;28.70;;;;;;;18.69;100.00;98581.44;2067012;28;20978;-74
2022/06/08 04:10:27;;;;;;;32.43;29.13;;;;;;;18.73;100.00;98579.56;2082965;28;20808;-73
2022/06/08 04:11:33;;;;;;;32.87;29.57;;;;;;;18.78;100.00;98576.56;2082411;28;20446;-75
2022/06/08 04:12:35;;;;;;;32.07;28.83;;;;;;;18.80;100.00;98574.28;2083001;28;20437;-76
2022/06/08 04:13:38;;;;;;;33.10;29.10;;;;;;;18.89;100.00;98574.78;2082530;28;20429;-76
2022/06/08 04:14:45;;;;;;;30.47;27.53;;;;;;;18.88;100.00;98578.66;2074670;28;20458;-74
2022/06/08 04:15:49;;;;;;;31.77;28.77;;;;;;;18.80;100.00;98574.28;2074341;28;20451;-75
2022/06/08 04:17:01;;;;;;;30.77;27.70;;;;;;;18.72;100.00;98588.81;2067566;28;20436;-75
2022/06/08 04:18:04;;;;;;;29.03;26.50;;;;;;;18.71;100.00;98588.03;2066595;28;20456;-74
2022/06/08 04:19:07;;;;;;;31.47;28.37;;;;;;;18.70;100.00;98585.69;2066882;28;20440;-73
2022/06/08 04:20:10;;;;;;;31.27;28.27;;;;;;;18.72;100.00;98589.59;2066537;28;20447;-72
2022/06/08 04:21:14;;;;;;;31.13;28.17;;;;;;;18.73;100.00;98590.38;2065862;28;20455;-72
2022/06/08 04:22:31;;;;;;;31.00;28.03;;;;;;;18.72;100.00;98591.50;2068381;28;20539;-72
2022/06/08 04:23:36;;;;;;;30.87;27.70;;;;;;;18.79;100.00;98597.03;2066622;28;20440;-72
2022/06/08 04:24:37;;;;;;;29.97;27.03;;;;;;;18.79;100.00;98591.63;2066802;28;20893;-72
2022/06/08 04:25:42;;;;;;;31.97;28.57;;;;;;;18.69;100.00;98595.72;2074632;28;20451;-71
2022/06/08 04:26:43;;;;;;;31.30;28.10;;;;;;;18.77;100.00;98596.63;2074364;28;20448;-74
2022/06/08 04:27:54;;;;;;;31.33;28.20;;;;;;;18.69;100.00;98589.53;2067831;28;20989;-73
2022/06/08 04:28:55;;;;;;;31.00;28.10;;;;;;;18.68;100.00;98591.47;2074531;28;20486;-73
2022/06/08 04:29:57;;;;;;;31.27;28.17;;;;;;;18.57;100.00;98587.75;2074350;28;20455;-76
2022/06/08 04:31:01;;;;;;;30.60;27.93;;;;;;;18.65;100.00;98589.47;2082698;28;20704;-73
2022/06/08 04:32:07;;;;;;;31.43;28.53;;;;;;;18.62;100.00;98579.34;2081983;28;20423;-73
2022/06/08 04:33:09;;;;;;;31.93;28.63;;;;;;;18.66;100.00;98579.44;2066493;28;20472;-71
2022/06/08 04:34:13;;;;;;;30.90;27.67;;;;;;;18.73;100.00;98574.94;2066131;28;20490;-71
2022/06/08 04:35:19;;;;;;;31.33;28.43;;;;;;;18.66;100.00;98574.03;2074649;28;20447;-72
2022/06/08 04:36:23;;;;;;;30.83;28.03;;;;;;;18.57;100.00;98572.31;2073775;28;20462;-72
2022/06/08 04:37:25;;;;;;;31.60;28.70;;;;;;;18.56;100.00;98573.47;2082849;28;20991;-72
2022/06/08 04:38:30;;;;;;;31.87;28.90;;;;;;;18.62;100.00;98561.22;2090508;28;20422;-72
2022/06/08 04:39:30;;;;;;;30.80;27.80;;;;;;;18.64;100.00;98567.03;2082339;28;20451;-72
2022/06/08 04:40:35;;;;;;;31.90;28.80;;;;;;;18.60;100.00;98568.13;2074172;28;20423;-72
2022/06/08 04:41:38;;;;;;;32.03;28.90;;;;;;;18.51;100.00;98568.38;2066137;28;20527;-76
2022/06/08 04:42:40;;;;;;;31.33;28.40;;;;;;;18.52;100.00;98575.34;2066173;28;20459;-73
2022/06/08 04:43:43;;;;;;;31.57;28.30;;;;;;;18.57;100.00;98564.22;2074187;28;20443;-72
2022/06/08 04:44:45;;;;;;;31.43;28.17;;;;;;;18.62;100.00;98577.44;2073997;28;20498;-71
2022/06/08 04:45:52;;;;;;;31.07;27.93;;;;;;;18.58;100.00;98573.09;2074348;28;20860;-72
2022/06/08 04:46:55;;;;;;;31.50;28.40;;;;;;;18.59;100.00;98572.75;2074073;28;20583;-72
2022/06/08 04:47:57;;;;;;;31.57;28.40;;;;;;;18.61;100.00;98564.28;2074897;28;20439;-73
2022/06/08 04:48:59;;;;;;;31.20;28.20;;;;;;;18.57;100.00;98569.63;2074299;28;20521;-74
2022/06/08 04:50:04;;;;;;;30.37;27.43;;;;;;;18.58;100.00;98573.09;2066469;28;20204;-73
2022/06/08 04:51:06;;;;;;;30.80;27.80;;;;;;;18.60;100.00;98565.44;2082471;28;20442;-73
2022/06/08 04:52:09;;;;;;;29.70;27.00;;;;;;;18.64;100.00;98561.63;2082025;28;20446;-73
2022/06/08 04:53:12;;;;;;;30.30;27.37;;;;;;;18.73;100.00;98568.75;2066336;28;21029;-73
2022/06/08 04:54:16;;;;;;;29.73;27.03;;;;;;;18.90;100.00;98570.94;2074477;28;20509;-71
2022/06/08 04:55:20;;;;;;;30.00;27.27;;;;;;;18.99;100.00;98566.06;2074075;28;20455;-72
2022/06/08 04:56:24;;;;;;;30.50;27.63;;;;;;;18.93;100.00;98565.59;2074588;28;20523;-72
2022/06/08 04:57:30;;;;;;;30.90;28.00;;;;;;;18.96;100.00;98571.44;2074012;28;20876;-72
2022/06/08 04:58:32;;;;;;;31.13;27.90;;;;;;;18.92;100.00;98568.66;2074131;28;20458;-72
2022/06/08 04:59:35;;;;;;;29.63;26.83;;;;;;;18.92;100.00;98568.66;2066183;28;20488;-73
2022/06/08 05:00:43;;;;;;;31.13;27.80;;;;;;;19.01;100.00;98571.88;2067286;28;20523;-72
2022/06/08 05:01:45;;;;;;;29.50;26.70;;;;;;;19.04;100.00;98570.41;2066545;28;21045;-72